sensor_id;sensor_type;location;lat;lon;timestamp;P1;durP1;ratioP1;P2;durP2;ratioP2
70213;SDS011;60138;55.808;37.078;2023-09-19T00:00:57;22.03;;;12.77;;
70213;SDS011;60138;55.808;37.078;2023-09-19T00:03:23;22.40;;;12.85;;
70213;SDS011;60138;55.808;37.078;2023-09-19T00:05:49;20.48;;;12.52;;
70213;SDS011;60138;55.808;37.078;2023-09-19T00:08:15;21.48;;;13.30;;
70213;SDS011;60138;55.808;37.078;2023-09-19T00:10:43;22.83;;;12.63;;
70213;SDS011;60138;55.808;37.078;2023-09-19T00:13:09;20.52;;;12.23;;
70213;SDS011;60138;55.808;37.078;2023-09-19T00:15:36;21.45;;;12.93;;
70213;SDS011;60138;55.808;37.078;2023-09-19T00:18:04;23.52;;;13.27;;
70213;SDS011;60138;55.808;37.078;2023-09-19T00:20:30;21.33;;;12.77;;
70213;SDS011;60138;55.808;37.078;2023-09-19T00:22:56;23.17;;;13.10;;
70213;SDS011;60138;55.808;37.078;2023-09-19T00:25:22;24.42;;;15.57;;
70213;SDS011;60138;55.808;37.078;2023-09-19T00:27:47;27.93;;;16.70;;
70213;SDS011;60138;55.808;37.078;2023-09-19T00:30:13;23.77;;;14.52;;
70213;SDS011;60138;55.808;37.078;2023-09-19T00:32:40;29.60;;;17.42;;
70213;SDS011;60138;55.808;37.078;2023-09-19T00:35:06;38.83;;;23.60;;
70213;SDS011;60138;55.808;37.078;2023-09-19T00:37:32;45.95;;;25.17;;
70213;SDS011;60138;55.808;37.078;2023-09-19T00:39:58;44.35;;;26.85;;
70213;SDS011;60138;55.808;37.078;2023-09-19T00:42:24;37.57;;;22.70;;
70213;SDS011;60138;55.808;37.078;2023-09-19T00:44:50;37.70;;;21.35;;
70213;SDS011;60138;55.808;37.078;2023-09-19T00:47:15;36.38;;;22.27;;
70213;SDS011;60138;55.808;37.078;2023-09-19T00:49:43;37.03;;;21.48;;
70213;SDS011;60138;55.808;37.078;2023-09-19T00:52:12;39.78;;;23.00;;
70213;SDS011;60138;55.808;37.078;2023-09-19T00:54:39;36.00;;;24.67;;
70213;SDS011;60138;55.808;37.078;2023-09-19T00:57:05;35.50;;;23.05;;
70213;SDS011;60138;55.808;37.078;2023-09-19T00:59:31;40.58;;;26.25;;
70213;SDS011;60138;55.808;37.078;2023-09-19T01:01:57;37.10;;;23.13;;
70213;SDS011;60138;55.808;37.078;2023-09-19T01:04:24;33.25;;;21.95;;
70213;SDS011;60138;55.808;37.078;2023-09-19T01:06:50;33.90;;;19.47;;
70213;SDS011;60138;55.808;37.078;2023-09-19T01:09:16;32.33;;;17.13;;
70213;SDS011;60138;55.808;37.078;2023-09-19T01:11:43;28.10;;;17.70;;
70213;SDS011;60138;55.808;37.078;2023-09-19T01:14:20;25.67;;;17.52;;
70213;SDS011;60138;55.808;37.078;2023-09-19T01:16:57;23.33;;;17.05;;
70213;SDS011;60138;55.808;37.078;2023-09-19T01:22:28;23.08;;;15.95;;
70213;SDS011;60138;55.808;37.078;2023-09-19T01:28:07;23.50;;;15.35;;
70213;SDS011;60138;55.808;37.078;2023-09-19T01:30:44;23.35;;;15.85;;
70213;SDS011;60138;55.808;37.078;2023-09-19T01:33:11;28.50;;;16.27;;
70213;SDS011;60138;55.808;37.078;2023-09-19T01:35:37;26.25;;;15.00;;
70213;SDS011;60138;55.808;37.078;2023-09-19T01:38:03;24.90;;;15.38;;
70213;SDS011;60138;55.808;37.078;2023-09-19T01:40:32;25.88;;;14.35;;
70213;SDS011;60138;55.808;37.078;2023-09-19T01:48:38;25.40;;;14.80;;
70213;SDS011;60138;55.808;37.078;2023-09-19T01:51:08;23.50;;;15.45;;
70213;SDS011;60138;55.808;37.078;2023-09-19T01:56:30;25.43;;;14.77;;
70213;SDS011;60138;55.808;37.078;2023-09-19T01:59:04;22.85;;;15.35;;
70213;SDS011;60138;55.808;37.078;2023-09-19T02:01:39;23.88;;;14.38;;
70213;SDS011;60138;55.808;37.078;2023-09-19T02:04:07;22.70;;;14.40;;
70213;SDS011;60138;55.808;37.078;2023-09-19T02:06:35;22.40;;;14.23;;
70213;SDS011;60138;55.808;37.078;2023-09-19T02:09:01;24.73;;;14.70;;
70213;SDS011;60138;55.808;37.078;2023-09-19T02:11:28;23.15;;;15.25;;
70213;SDS011;60138;55.808;37.078;2023-09-19T02:13:54;20.52;;;13.88;;
70213;SDS011;60138;55.808;37.078;2023-09-19T02:16:21;23.58;;;14.68;;
70213;SDS011;60138;55.808;37.078;2023-09-19T02:18:50;22.58;;;13.75;;
70213;SDS011;60138;55.808;37.078;2023-09-19T02:21:16;24.13;;;13.73;;
70213;SDS011;60138;55.808;37.078;2023-09-19T02:23:46;20.92;;;13.07;;
70213;SDS011;60138;55.808;37.078;2023-09-19T02:26:13;23.08;;;13.77;;
70213;SDS011;60138;55.808;37.078;2023-09-19T02:28:41;19.05;;;13.88;;
70213;SDS011;60138;55.808;37.078;2023-09-19T02:31:08;22.85;;;13.48;;
70213;SDS011;60138;55.808;37.078;2023-09-19T02:33:35;20.53;;;14.27;;
70213;SDS011;60138;55.808;37.078;2023-09-19T02:36:01;22.08;;;13.43;;
70213;SDS011;60138;55.808;37.078;2023-09-19T02:38:27;20.30;;;13.82;;
70213;SDS011;60138;55.808;37.078;2023-09-19T02:40:55;21.92;;;14.55;;
70213;SDS011;60138;55.808;37.078;2023-09-19T02:43:21;21.70;;;13.80;;
70213;SDS011;60138;55.808;37.078;2023-09-19T02:45:49;20.13;;;12.75;;
70213;SDS011;60138;55.808;37.078;2023-09-19T02:48:15;22.45;;;12.70;;
70213;SDS011;60138;55.808;37.078;2023-09-19T02:50:42;18.70;;;12.30;;
70213;SDS011;60138;55.808;37.078;2023-09-19T02:53:08;25.42;;;12.77;;
70213;SDS011;60138;55.808;37.078;2023-09-19T02:55:34;17.13;;;12.33;;
70213;SDS011;60138;55.808;37.078;2023-09-19T02:58:00;22.30;;;12.70;;
70213;SDS011;60138;55.808;37.078;2023-09-19T03:00:26;21.35;;;12.52;;
70213;SDS011;60138;55.808;37.078;2023-09-19T03:02:55;19.30;;;11.73;;
70213;SDS011;60138;55.808;37.078;2023-09-19T03:05:22;22.73;;;13.80;;
70213;SDS011;60138;55.808;37.078;2023-09-19T03:07:49;17.05;;;11.48;;
70213;SDS011;60138;55.808;37.078;2023-09-19T03:10:16;17.70;;;11.93;;
70213;SDS011;60138;55.808;37.078;2023-09-19T03:12:47;20.93;;;12.13;;
70213;SDS011;60138;55.808;37.078;2023-09-19T03:15:16;19.52;;;12.40;;
70213;SDS011;60138;55.808;37.078;2023-09-19T03:17:44;19.23;;;12.55;;
70213;SDS011;60138;55.808;37.078;2023-09-19T03:20:11;20.23;;;12.45;;
70213;SDS011;60138;55.808;37.078;2023-09-19T03:22:37;18.60;;;12.45;;
70213;SDS011;60138;55.808;37.078;2023-09-19T03:25:04;22.27;;;12.67;;
70213;SDS011;60138;55.808;37.078;2023-09-19T03:27:30;19.00;;;13.88;;
70213;SDS011;60138;55.808;37.078;2023-09-19T03:29:56;22.33;;;13.48;;
70213;SDS011;60138;55.808;37.078;2023-09-19T03:32:22;20.17;;;12.20;;
70213;SDS011;60138;55.808;37.078;2023-09-19T03:34:48;23.80;;;13.13;;
70213;SDS011;60138;55.808;37.078;2023-09-19T03:37:15;25.55;;;13.80;;
70213;SDS011;60138;55.808;37.078;2023-09-19T03:39:41;25.80;;;15.27;;
70213;SDS011;60138;55.808;37.078;2023-09-19T03:42:07;23.27;;;15.00;;
70213;SDS011;60138;55.808;37.078;2023-09-19T03:44:34;23.97;;;15.47;;
70213;SDS011;60138;55.808;37.078;2023-09-19T03:46:59;28.88;;;14.68;;
70213;SDS011;60138;55.808;37.078;2023-09-19T03:49:26;30.02;;;17.00;;
70213;SDS011;60138;55.808;37.078;2023-09-19T03:51:52;26.30;;;16.57;;
70213;SDS011;60138;55.808;37.078;2023-09-19T03:54:18;24.30;;;15.18;;
70213;SDS011;60138;55.808;37.078;2023-09-19T03:56:44;30.95;;;18.90;;
70213;SDS011;60138;55.808;37.078;2023-09-19T03:59:10;26.30;;;15.80;;
70213;SDS011;60138;55.808;37.078;2023-09-19T04:01:35;31.35;;;18.10;;
70213;SDS011;60138;55.808;37.078;2023-09-19T04:04:02;30.13;;;17.07;;
70213;SDS011;60138;55.808;37.078;2023-09-19T04:06:28;30.85;;;18.55;;
70213;SDS011;60138;55.808;37.078;2023-09-19T04:08:54;31.98;;;19.13;;
70213;SDS011;60138;55.808;37.078;2023-09-19T04:11:19;28.93;;;17.17;;
70213;SDS011;60138;55.808;37.078;2023-09-19T04:13:45;28.23;;;16.73;;
70213;SDS011;60138;55.808;37.078;2023-09-19T04:16:11;25.67;;;16.43;;
70213;SDS011;60138;55.808;37.078;2023-09-19T04:18:38;28.63;;;15.77;;
70213;SDS011;60138;55.808;37.078;2023-09-19T04:21:05;30.45;;;18.38;;
70213;SDS011;60138;55.808;37.078;2023-09-19T04:23:32;29.73;;;16.90;;
70213;SDS011;60138;55.808;37.078;2023-09-19T04:25:58;34.03;;;19.48;;
70213;SDS011;60138;55.808;37.078;2023-09-19T04:28:24;31.43;;;19.50;;
70213;SDS011;60138;55.808;37.078;2023-09-19T04:30:50;31.25;;;19.55;;
70213;SDS011;60138;55.808;37.078;2023-09-19T04:33:16;37.42;;;20.50;;
70213;SDS011;60138;55.808;37.078;2023-09-19T04:35:42;41.83;;;23.03;;
70213;SDS011;60138;55.808;37.078;2023-09-19T04:38:08;41.60;;;24.42;;
70213;SDS011;60138;55.808;37.078;2023-09-19T04:40:34;39.65;;;23.80;;
70213;SDS011;60138;55.808;37.078;2023-09-19T04:43:00;38.47;;;22.23;;
70213;SDS011;60138;55.808;37.078;2023-09-19T04:45:26;41.28;;;23.92;;
70213;SDS011;60138;55.808;37.078;2023-09-19T04:47:53;43.33;;;25.75;;
70213;SDS011;60138;55.808;37.078;2023-09-19T04:50:19;50.25;;;25.55;;
70213;SDS011;60138;55.808;37.078;2023-09-19T04:52:45;42.07;;;25.43;;
70213;SDS011;60138;55.808;37.078;2023-09-19T04:55:14;45.53;;;26.63;;
70213;SDS011;60138;55.808;37.078;2023-09-19T04:57:40;55.88;;;27.55;;
70213;SDS011;60138;55.808;37.078;2023-09-19T05:00:06;46.50;;;26.48;;
70213;SDS011;60138;55.808;37.078;2023-09-19T05:02:32;47.33;;;25.25;;
70213;SDS011;60138;55.808;37.078;2023-09-19T05:04:58;54.38;;;27.42;;
70213;SDS011;60138;55.808;37.078;2023-09-19T05:07:24;47.60;;;27.63;;
70213;SDS011;60138;55.808;37.078;2023-09-19T05:09:50;48.97;;;27.17;;
70213;SDS011;60138;55.808;37.078;2023-09-19T05:12:16;50.78;;;27.45;;
70213;SDS011;60138;55.808;37.078;2023-09-19T05:14:42;50.90;;;26.20;;
70213;SDS011;60138;55.808;37.078;2023-09-19T05:17:07;49.45;;;26.85;;
70213;SDS011;60138;55.808;37.078;2023-09-19T05:19:33;48.40;;;24.67;;
70213;SDS011;60138;55.808;37.078;2023-09-19T05:21:59;51.92;;;26.88;;
70213;SDS011;60138;55.808;37.078;2023-09-19T05:24:25;44.78;;;24.92;;
70213;SDS011;60138;55.808;37.078;2023-09-19T05:26:51;49.40;;;24.00;;
70213;SDS011;60138;55.808;37.078;2023-09-19T05:29:16;47.38;;;25.35;;
70213;SDS011;60138;55.808;37.078;2023-09-19T05:31:42;46.20;;;23.93;;
70213;SDS011;60138;55.808;37.078;2023-09-19T05:34:08;44.72;;;23.85;;
70213;SDS011;60138;55.808;37.078;2023-09-19T05:36:34;40.08;;;24.20;;
70213;SDS011;60138;55.808;37.078;2023-09-19T05:39:00;41.77;;;22.80;;
70213;SDS011;60138;55.808;37.078;2023-09-19T05:41:25;40.95;;;22.10;;
70213;SDS011;60138;55.808;37.078;2023-09-19T05:43:51;40.53;;;23.57;;
70213;SDS011;60138;55.808;37.078;2023-09-19T05:46:17;42.33;;;22.60;;
70213;SDS011;60138;55.808;37.078;2023-09-19T05:48:43;39.03;;;21.13;;
70213;SDS011;60138;55.808;37.078;2023-09-19T05:51:09;43.63;;;23.55;;
70213;SDS011;60138;55.808;37.078;2023-09-19T05:53:35;40.30;;;22.55;;
70213;SDS011;60138;55.808;37.078;2023-09-19T05:56:00;42.53;;;22.73;;
70213;SDS011;60138;55.808;37.078;2023-09-19T05:58:26;43.67;;;24.85;;
70213;SDS011;60138;55.808;37.078;2023-09-19T06:00:52;40.72;;;21.95;;
70213;SDS011;60138;55.808;37.078;2023-09-19T06:03:19;34.67;;;20.73;;
70213;SDS011;60138;55.808;37.078;2023-09-19T06:05:45;39.92;;;21.38;;
70213;SDS011;60138;55.808;37.078;2023-09-19T06:08:11;36.45;;;21.13;;
70213;SDS011;60138;55.808;37.078;2023-09-19T06:10:38;35.67;;;20.43;;
70213;SDS011;60138;55.808;37.078;2023-09-19T06:13:04;30.88;;;18.42;;
70213;SDS011;60138;55.808;37.078;2023-09-19T06:15:30;33.28;;;21.05;;
70213;SDS011;60138;55.808;37.078;2023-09-19T06:17:56;39.85;;;20.70;;
70213;SDS011;60138;55.808;37.078;2023-09-19T06:20:22;39.43;;;24.37;;
70213;SDS011;60138;55.808;37.078;2023-09-19T06:22:49;33.70;;;21.10;;
70213;SDS011;60138;55.808;37.078;2023-09-19T06:25:16;40.35;;;22.35;;
70213;SDS011;60138;55.808;37.078;2023-09-19T06:27:42;33.38;;;22.35;;
70213;SDS011;60138;55.808;37.078;2023-09-19T06:30:09;34.15;;;19.80;;
70213;SDS011;60138;55.808;37.078;2023-09-19T06:32:35;31.97;;;19.27;;
70213;SDS011;60138;55.808;37.078;2023-09-19T06:35:01;35.58;;;19.40;;
70213;SDS011;60138;55.808;37.078;2023-09-19T06:37:27;34.25;;;19.35;;
70213;SDS011;60138;55.808;37.078;2023-09-19T06:39:54;34.53;;;18.27;;
70213;SDS011;60138;55.808;37.078;2023-09-19T06:42:20;32.85;;;19.40;;
70213;SDS011;60138;55.808;37.078;2023-09-19T06:44:46;32.22;;;18.75;;
70213;SDS011;60138;55.808;37.078;2023-09-19T06:47:12;29.88;;;18.33;;
70213;SDS011;60138;55.808;37.078;2023-09-19T06:49:37;34.77;;;19.57;;
70213;SDS011;60138;55.808;37.078;2023-09-19T06:52:04;33.83;;;18.83;;
70213;SDS011;60138;55.808;37.078;2023-09-19T06:54:30;29.60;;;18.35;;
70213;SDS011;60138;55.808;37.078;2023-09-19T06:56:59;31.27;;;18.90;;
70213;SDS011;60138;55.808;37.078;2023-09-19T06:59:25;29.00;;;17.42;;
70213;SDS011;60138;55.808;37.078;2023-09-19T07:01:52;35.60;;;18.65;;
70213;SDS011;60138;55.808;37.078;2023-09-19T07:04:18;30.42;;;18.25;;
70213;SDS011;60138;55.808;37.078;2023-09-19T07:06:44;25.83;;;16.83;;
70213;SDS011;60138;55.808;37.078;2023-09-19T07:09:14;26.52;;;16.65;;
70213;SDS011;60138;55.808;37.078;2023-09-19T07:11:41;28.85;;;17.17;;
70213;SDS011;60138;55.808;37.078;2023-09-19T07:14:08;27.50;;;17.05;;
70213;SDS011;60138;55.808;37.078;2023-09-19T07:16:34;29.13;;;15.60;;
70213;SDS011;60138;55.808;37.078;2023-09-19T07:19:00;20.37;;;13.93;;
70213;SDS011;60138;55.808;37.078;2023-09-19T07:21:27;29.73;;;16.27;;
70213;SDS011;60138;55.808;37.078;2023-09-19T07:23:53;24.50;;;15.87;;
70213;SDS011;60138;55.808;37.078;2023-09-19T07:26:19;24.10;;;15.10;;
70213;SDS011;60138;55.808;37.078;2023-09-19T07:28:45;24.75;;;14.45;;
70213;SDS011;60138;55.808;37.078;2023-09-19T07:31:12;24.13;;;15.30;;
70213;SDS011;60138;55.808;37.078;2023-09-19T07:33:38;25.17;;;15.23;;
70213;SDS011;60138;55.808;37.078;2023-09-19T07:36:03;23.73;;;14.90;;
70213;SDS011;60138;55.808;37.078;2023-09-19T07:38:29;21.63;;;14.50;;
70213;SDS011;60138;55.808;37.078;2023-09-19T07:41:01;23.38;;;14.35;;
70213;SDS011;60138;55.808;37.078;2023-09-19T07:43:28;22.63;;;14.20;;
70213;SDS011;60138;55.808;37.078;2023-09-19T07:45:54;26.05;;;14.23;;
70213;SDS011;60138;55.808;37.078;2023-09-19T07:48:19;27.17;;;15.60;;
70213;SDS011;60138;55.808;37.078;2023-09-19T07:50:45;21.40;;;13.70;;
70213;SDS011;60138;55.808;37.078;2023-09-19T07:53:11;21.88;;;13.02;;
70213;SDS011;60138;55.808;37.078;2023-09-19T07:55:37;24.70;;;13.48;;
70213;SDS011;60138;55.808;37.078;2023-09-19T07:58:03;19.25;;;13.93;;
70213;SDS011;60138;55.808;37.078;2023-09-19T08:00:29;28.43;;;13.60;;
70213;SDS011;60138;55.808;37.078;2023-09-19T08:02:55;26.67;;;15.60;;
70213;SDS011;60138;55.808;37.078;2023-09-19T08:05:20;23.77;;;14.80;;
70213;SDS011;60138;55.808;37.078;2023-09-19T08:07:46;23.98;;;15.18;;
70213;SDS011;60138;55.808;37.078;2023-09-19T08:10:12;22.57;;;14.77;;
70213;SDS011;60138;55.808;37.078;2023-09-19T08:12:44;23.75;;;14.93;;
70213;SDS011;60138;55.808;37.078;2023-09-19T08:15:16;22.63;;;15.10;;
70213;SDS011;60138;55.808;37.078;2023-09-19T08:17:43;22.45;;;14.55;;
70213;SDS011;60138;55.808;37.078;2023-09-19T08:20:09;31.98;;;18.58;;
70213;SDS011;60138;55.808;37.078;2023-09-19T08:22:37;34.10;;;21.57;;
70213;SDS011;60138;55.808;37.078;2023-09-19T08:25:03;25.55;;;16.48;;
70213;SDS011;60138;55.808;37.078;2023-09-19T08:27:29;24.88;;;15.48;;
70213;SDS011;60138;55.808;37.078;2023-09-19T08:29:55;23.05;;;14.32;;
70213;SDS011;60138;55.808;37.078;2023-09-19T08:32:21;32.43;;;19.50;;
70213;SDS011;60138;55.808;37.078;2023-09-19T08:34:47;41.88;;;23.25;;
70213;SDS011;60138;55.808;37.078;2023-09-19T08:37:13;33.15;;;19.05;;
70213;SDS011;60138;55.808;37.078;2023-09-19T08:39:38;24.17;;;15.93;;
70213;SDS011;60138;55.808;37.078;2023-09-19T08:42:06;29.15;;;18.80;;
70213;SDS011;60138;55.808;37.078;2023-09-19T08:44:35;22.77;;;16.25;;
70213;SDS011;60138;55.808;37.078;2023-09-19T08:47:09;25.53;;;16.53;;
70213;SDS011;60138;55.808;37.078;2023-09-19T08:49:40;25.80;;;14.85;;
70213;SDS011;60138;55.808;37.078;2023-09-19T08:52:32;25.73;;;15.32;;
70213;SDS011;60138;55.808;37.078;2023-09-19T08:55:02;21.33;;;14.35;;
70213;SDS011;60138;55.808;37.078;2023-09-19T08:57:33;28.02;;;14.85;;
70213;SDS011;60138;55.808;37.078;2023-09-19T09:00:01;19.90;;;13.90;;
70213;SDS011;60138;55.808;37.078;2023-09-19T09:02:30;25.67;;;15.05;;
70213;SDS011;60138;55.808;37.078;2023-09-19T09:04:57;23.33;;;14.15;;
70213;SDS011;60138;55.808;37.078;2023-09-19T09:07:24;23.35;;;14.23;;
70213;SDS011;60138;55.808;37.078;2023-09-19T09:09:50;22.60;;;14.95;;
70213;SDS011;60138;55.808;37.078;2023-09-19T09:12:16;21.07;;;13.77;;
70213;SDS011;60138;55.808;37.078;2023-09-19T09:14:46;24.95;;;14.93;;
70213;SDS011;60138;55.808;37.078;2023-09-19T09:17:12;18.80;;;14.45;;
70213;SDS011;60138;55.808;37.078;2023-09-19T09:19:37;22.75;;;13.50;;
70213;SDS011;60138;55.808;37.078;2023-09-19T09:22:10;23.30;;;14.30;;
70213;SDS011;60138;55.808;37.078;2023-09-19T09:24:37;20.65;;;13.38;;
70213;SDS011;60138;55.808;37.078;2023-09-19T09:27:03;20.70;;;13.88;;
70213;SDS011;60138;55.808;37.078;2023-09-19T09:29:43;19.88;;;14.38;;
70213;SDS011;60138;55.808;37.078;2023-09-19T09:34:52;26.37;;;13.77;;
70213;SDS011;60138;55.808;37.078;2023-09-19T09:37:20;27.60;;;14.98;;
70213;SDS011;60138;55.808;37.078;2023-09-19T09:39:49;22.23;;;14.65;;
70213;SDS011;60138;55.808;37.078;2023-09-19T09:42:28;21.85;;;13.57;;
70213;SDS011;60138;55.808;37.078;2023-09-19T09:45:14;28.42;;;14.70;;
70213;SDS011;60138;55.808;37.078;2023-09-19T09:47:48;20.27;;;13.60;;
70213;SDS011;60138;55.808;37.078;2023-09-19T09:50:14;23.45;;;15.20;;
70213;SDS011;60138;55.808;37.078;2023-09-19T09:52:48;24.30;;;14.50;;
70213;SDS011;60138;55.808;37.078;2023-09-19T09:55:14;24.13;;;13.05;;
70213;SDS011;60138;55.808;37.078;2023-09-19T09:57:40;24.30;;;13.83;;
70213;SDS011;60138;55.808;37.078;2023-09-19T10:00:05;23.33;;;14.25;;
70213;SDS011;60138;55.808;37.078;2023-09-19T10:02:38;20.92;;;13.77;;
70213;SDS011;60138;55.808;37.078;2023-09-19T10:05:18;19.70;;;13.60;;
70213;SDS011;60138;55.808;37.078;2023-09-19T10:07:50;21.92;;;12.82;;
70213;SDS011;60138;55.808;37.078;2023-09-19T10:10:33;28.40;;;15.48;;
70213;SDS011;60138;55.808;37.078;2023-09-19T10:13:03;25.30;;;13.82;;
70213;SDS011;60138;55.808;37.078;2023-09-19T10:15:37;22.25;;;13.65;;
70213;SDS011;60138;55.808;37.078;2023-09-19T10:18:06;21.50;;;13.50;;
70213;SDS011;60138;55.808;37.078;2023-09-19T10:20:32;25.88;;;13.73;;
70213;SDS011;60138;55.808;37.078;2023-09-19T10:23:00;23.10;;;13.68;;
70213;SDS011;60138;55.808;37.078;2023-09-19T10:25:27;26.92;;;13.88;;
70213;SDS011;60138;55.808;37.078;2023-09-19T10:27:54;21.40;;;13.40;;
70213;SDS011;60138;55.808;37.078;2023-09-19T10:30:22;24.00;;;12.60;;
70213;SDS011;60138;55.808;37.078;2023-09-19T10:32:52;24.85;;;11.35;;
70213;SDS011;60138;55.808;37.078;2023-09-19T10:35:32;18.10;;;11.85;;
70213;SDS011;60138;55.808;37.078;2023-09-19T10:38:02;23.88;;;12.77;;
70213;SDS011;60138;55.808;37.078;2023-09-19T10:40:32;18.40;;;12.70;;
70213;SDS011;60138;55.808;37.078;2023-09-19T10:43:04;19.47;;;10.67;;
70213;SDS011;60138;55.808;37.078;2023-09-19T10:45:33;19.40;;;10.95;;
70213;SDS011;60138;55.808;37.078;2023-09-19T10:48:00;23.27;;;12.50;;
70213;SDS011;60138;55.808;37.078;2023-09-19T10:50:46;17.95;;;11.50;;
70213;SDS011;60138;55.808;37.078;2023-09-19T10:56:27;23.53;;;10.73;;
70213;SDS011;60138;55.808;37.078;2023-09-19T10:59:05;23.33;;;11.68;;
70213;SDS011;60138;55.808;37.078;2023-09-19T11:02:16;18.08;;;11.90;;
70213;SDS011;60138;55.808;37.078;2023-09-19T11:04:24;21.88;;;11.13;;
70213;SDS011;60138;55.808;37.078;2023-09-19T11:07:00;21.38;;;10.85;;
70213;SDS011;60138;55.808;37.078;2023-09-19T11:09:45;22.60;;;10.90;;
70213;SDS011;60138;55.808;37.078;2023-09-19T11:14:56;18.83;;;10.93;;
70213;SDS011;60138;55.808;37.078;2023-09-19T11:17:32;20.17;;;11.50;;
70213;SDS011;60138;55.808;37.078;2023-09-19T11:22:55;20.73;;;11.23;;
70213;SDS011;60138;55.808;37.078;2023-09-19T11:30:32;20.58;;;10.13;;
70213;SDS011;60138;55.808;37.078;2023-09-19T11:36:00;20.20;;;9.70;;
70213;SDS011;60138;55.808;37.078;2023-09-19T11:41:56;19.02;;;10.35;;
70213;SDS011;60138;55.808;37.078;2023-09-19T11:49:17;15.27;;;8.63;;
70213;SDS011;60138;55.808;37.078;2023-09-19T11:51:43;13.75;;;8.50;;
70213;SDS011;60138;55.808;37.078;2023-09-19T11:54:13;15.27;;;8.15;;
70213;SDS011;60138;55.808;37.078;2023-09-19T11:56:39;15.73;;;8.55;;
70213;SDS011;60138;55.808;37.078;2023-09-19T11:59:06;16.00;;;8.03;;
70213;SDS011;60138;55.808;37.078;2023-09-19T12:01:32;14.85;;;7.57;;
70213;SDS011;60138;55.808;37.078;2023-09-19T12:04:01;10.93;;;8.32;;
70213;SDS011;60138;55.808;37.078;2023-09-19T12:06:28;14.43;;;8.45;;
70213;SDS011;60138;55.808;37.078;2023-09-19T12:08:55;12.53;;;7.77;;
70213;SDS011;60138;55.808;37.078;2023-09-19T12:11:21;12.52;;;7.90;;
70213;SDS011;60138;55.808;37.078;2023-09-19T12:13:49;12.70;;;7.25;;
70213;SDS011;60138;55.808;37.078;2023-09-19T12:16:15;11.38;;;6.25;;
70213;SDS011;60138;55.808;37.078;2023-09-19T12:18:43;10.50;;;5.78;;
70213;SDS011;60138;55.808;37.078;2023-09-19T12:21:23;8.10;;;5.57;;
70213;SDS011;60138;55.808;37.078;2023-09-19T12:26:26;8.93;;;5.72;;
70213;SDS011;60138;55.808;37.078;2023-09-19T12:28:52;9.10;;;5.18;;
70213;SDS011;60138;55.808;37.078;2023-09-19T12:31:19;13.27;;;5.80;;
70213;SDS011;60138;55.808;37.078;2023-09-19T12:33:45;7.00;;;4.63;;
70213;SDS011;60138;55.808;37.078;2023-09-19T12:36:29;6.65;;;4.35;;
70213;SDS011;60138;55.808;37.078;2023-09-19T12:38:55;6.28;;;4.28;;
70213;SDS011;60138;55.808;37.078;2023-09-19T12:41:27;8.52;;;4.68;;
70213;SDS011;60138;55.808;37.078;2023-09-19T12:43:53;8.55;;;5.05;;
70213;SDS011;60138;55.808;37.078;2023-09-19T12:46:20;7.23;;;4.23;;
70213;SDS011;60138;55.808;37.078;2023-09-19T12:48:47;8.88;;;5.05;;
70213;SDS011;60138;55.808;37.078;2023-09-19T12:51:37;7.82;;;4.35;;
70213;SDS011;60138;55.808;37.078;2023-09-19T12:54:03;7.90;;;4.82;;
70213;SDS011;60138;55.808;37.078;2023-09-19T12:56:29;9.37;;;4.53;;
70213;SDS011;60138;55.808;37.078;2023-09-19T12:59:07;9.10;;;5.00;;
70213;SDS011;60138;55.808;37.078;2023-09-19T13:01:32;8.75;;;5.30;;
70213;SDS011;60138;55.808;37.078;2023-09-19T13:06:44;8.40;;;4.67;;
70213;SDS011;60138;55.808;37.078;2023-09-19T13:09:19;9.32;;;5.63;;
70213;SDS011;60138;55.808;37.078;2023-09-19T13:11:46;8.80;;;5.20;;
70213;SDS011;60138;55.808;37.078;2023-09-19T13:17:04;8.48;;;5.05;;
70213;SDS011;60138;55.808;37.078;2023-09-19T13:19:38;10.73;;;5.20;;
70213;SDS011;60138;55.808;37.078;2023-09-19T13:25:13;9.82;;;5.45;;
70213;SDS011;60138;55.808;37.078;2023-09-19T13:27:43;14.57;;;5.28;;
70213;SDS011;60138;55.808;37.078;2023-09-19T13:30:10;16.85;;;5.32;;
70213;SDS011;60138;55.808;37.078;2023-09-19T13:32:39;8.77;;;5.07;;
70213;SDS011;60138;55.808;37.078;2023-09-19T13:35:06;10.32;;;5.10;;
70213;SDS011;60138;55.808;37.078;2023-09-19T13:37:32;11.68;;;5.60;;
70213;SDS011;60138;55.808;37.078;2023-09-19T13:39:58;8.70;;;5.38;;
70213;SDS011;60138;55.808;37.078;2023-09-19T13:42:24;11.33;;;5.40;;
70213;SDS011;60138;55.808;37.078;2023-09-19T13:44:50;9.75;;;5.80;;
70213;SDS011;60138;55.808;37.078;2023-09-19T13:47:16;10.77;;;5.10;;
70213;SDS011;60138;55.808;37.078;2023-09-19T13:49:41;7.88;;;5.70;;
70213;SDS011;60138;55.808;37.078;2023-09-19T13:52:07;8.93;;;5.83;;
70213;SDS011;60138;55.808;37.078;2023-09-19T13:54:34;12.30;;;6.20;;
70213;SDS011;60138;55.808;37.078;2023-09-19T13:57:00;9.55;;;5.85;;
70213;SDS011;60138;55.808;37.078;2023-09-19T13:59:26;9.33;;;5.80;;
70213;SDS011;60138;55.808;37.078;2023-09-19T14:01:52;18.67;;;5.25;;
70213;SDS011;60138;55.808;37.078;2023-09-19T14:04:17;9.15;;;6.20;;
70213;SDS011;60138;55.808;37.078;2023-09-19T14:06:43;8.43;;;5.43;;
70213;SDS011;60138;55.808;37.078;2023-09-19T14:09:09;8.35;;;5.20;;
70213;SDS011;60138;55.808;37.078;2023-09-19T14:11:35;9.03;;;5.83;;
70213;SDS011;60138;55.808;37.078;2023-09-19T14:14:02;9.75;;;6.32;;
70213;SDS011;60138;55.808;37.078;2023-09-19T14:16:28;9.95;;;5.35;;
70213;SDS011;60138;55.808;37.078;2023-09-19T14:18:54;8.82;;;5.45;;
70213;SDS011;60138;55.808;37.078;2023-09-19T14:21:19;9.40;;;4.77;;
70213;SDS011;60138;55.808;37.078;2023-09-19T14:23:45;10.93;;;5.57;;
70213;SDS011;60138;55.808;37.078;2023-09-19T14:26:11;10.13;;;4.97;;
70213;SDS011;60138;55.808;37.078;2023-09-19T14:28:37;9.93;;;5.53;;
70213;SDS011;60138;55.808;37.078;2023-09-19T14:31:03;8.75;;;5.68;;
70213;SDS011;60138;55.808;37.078;2023-09-19T14:33:33;9.80;;;6.32;;
70213;SDS011;60138;55.808;37.078;2023-09-19T14:36:02;10.07;;;5.80;;
70213;SDS011;60138;55.808;37.078;2023-09-19T14:38:33;8.70;;;5.30;;
70213;SDS011;60138;55.808;37.078;2023-09-19T14:41:00;10.35;;;6.05;;
70213;SDS011;60138;55.808;37.078;2023-09-19T14:43:26;7.15;;;5.68;;
70213;SDS011;60138;55.808;37.078;2023-09-19T14:45:52;8.70;;;6.13;;
70213;SDS011;60138;55.808;37.078;2023-09-19T14:48:18;9.93;;;6.80;;
70213;SDS011;60138;55.808;37.078;2023-09-19T14:50:44;11.45;;;6.68;;
70213;SDS011;60138;55.808;37.078;2023-09-19T14:53:10;9.27;;;6.10;;
70213;SDS011;60138;55.808;37.078;2023-09-19T14:55:40;12.20;;;6.07;;
70213;SDS011;60138;55.808;37.078;2023-09-19T14:58:05;8.90;;;5.85;;
70213;SDS011;60138;55.808;37.078;2023-09-19T15:00:32;9.50;;;6.55;;
70213;SDS011;60138;55.808;37.078;2023-09-19T15:02:58;10.20;;;5.97;;
70213;SDS011;60138;55.808;37.078;2023-09-19T15:05:24;11.60;;;5.97;;
70213;SDS011;60138;55.808;37.078;2023-09-19T15:07:51;10.88;;;6.82;;
70213;SDS011;60138;55.808;37.078;2023-09-19T15:10:16;9.10;;;6.20;;